Terminal Aerodrome Forecast
Issued by NWS Upton, NY

Current Version | Previous Version | Text Only | Print | Product List | Glossary On
Versions: 1 2 3 4 5 6 7 8 9 10 11 12 13 14 15 16 17 18 19 20 21 22 23 24 25 26 27 28 29 30 31 32 33 34 35 36 37 38 39
000
FTUS41 KOKX 280240 AAA
TAFJFK
TAF AMD
KJFK 280240Z 2803/0106 19005KT P6SM SCT110
     FM280900 11004KT P6SM BKN070
     FM281800 13008KT P6SM SCT040 BKN200
     FM282100 14010KT 6SM -RA BKN020 OVC040
     FM010100 16010KT 2SM -RA BR BKN006 OVC010=

USA.gov is the U.S. government's official web portal to all federal, state and local government web resources and services.